createdAt,value
2018-09-27T00:00:59.970Z,15.80
2018-09-27T00:01:59.949Z,15.30
2018-09-27T00:02:59.922Z,15.80
2018-09-27T00:03:59.893Z,18.40
2018-09-27T00:04:59.869Z,16.40
2018-09-27T00:05:59.842Z,18.80
2018-09-27T00:06:59.818Z,21.70
2018-09-27T00:07:59.796Z,14.30
2018-09-27T00:08:59.764Z,16.70
2018-09-27T00:09:59.740Z,17.40
2018-09-27T00:10:59.716Z,19.00
2018-09-27T00:11:59.687Z,16.10
2018-09-27T00:12:59.664Z,14.30
2018-09-27T00:13:59.639Z,15.80
2018-09-27T00:14:59.610Z,16.40
2018-09-27T00:15:59.589Z,22.80
2018-09-27T00:16:59.761Z,16.10
2018-09-27T00:17:59.534Z,14.00
2018-09-27T00:18:59.709Z,13.70
2018-09-27T00:19:59.685Z,16.30
2018-09-27T00:20:59.455Z,15.10
2018-09-27T00:21:59.434Z,13.50
2018-09-27T00:23:41.755Z,14.60
2018-09-27T00:24:41.729Z,16.80
2018-09-27T00:25:41.502Z,13.70
2018-09-27T00:26:41.475Z,15.70
2018-09-27T00:27:41.448Z,17.70
2018-09-27T00:28:41.423Z,22.90
2018-09-27T00:29:41.396Z,18.60
2018-09-27T00:30:41.378Z,17.30
2018-09-27T00:31:41.345Z,15.50
2018-09-27T00:32:41.318Z,17.90
2018-09-27T00:33:41.292Z,14.10
2018-09-27T00:34:41.267Z,22.20
2018-09-27T00:35:41.241Z,17.20
2018-09-27T00:36:41.215Z,17.90
2018-09-27T00:37:41.189Z,18.30
2018-09-27T00:38:41.163Z,15.90
2018-09-27T00:39:41.137Z,16.90
2018-09-27T00:40:41.111Z,14.60
2018-09-27T00:41:41.088Z,16.80
2018-09-27T00:42:41.060Z,18.30
2018-09-27T00:43:41.033Z,16.50
2018-09-27T00:44:41.005Z,16.30
2018-09-27T00:45:40.982Z,13.60
2018-09-27T00:46:40.956Z,14.90
2018-09-27T00:47:40.930Z,18.00
2018-09-27T00:48:40.903Z,15.70
2018-09-27T00:49:40.878Z,13.70
2018-09-27T00:50:40.853Z,10.60
2018-09-27T00:51:40.829Z,15.20
2018-09-27T00:52:40.808Z,12.30
2018-09-27T00:53:40.775Z,13.00
2018-09-27T00:54:40.748Z,11.10
2018-09-27T00:55:40.725Z,11.40
2018-09-27T00:56:40.697Z,15.70
2018-09-27T00:57:40.671Z,13.60
2018-09-27T00:58:40.646Z,13.50
2018-09-27T00:59:40.619Z,14.80
2018-09-27T01:00:40.609Z,14.90
2018-09-27T01:01:40.568Z,13.10
2018-09-27T01:02:40.543Z,13.30
2018-09-27T01:03:40.525Z,11.90
2018-09-27T01:04:40.490Z,14.20
2018-09-27T01:05:40.470Z,14.60
2018-09-27T01:06:40.439Z,14.30
2018-09-27T01:07:40.412Z,13.90
2018-09-27T01:08:40.386Z,9.80
2018-09-27T01:09:40.367Z,17.00
2018-09-27T01:10:40.337Z,20.00
2018-09-27T01:11:40.317Z,14.30
2018-09-27T01:12:40.284Z,14.60
2018-09-27T01:13:40.259Z,16.30
2018-09-27T01:14:40.233Z,19.20
2018-09-27T01:15:40.208Z,11.30
2018-09-27T01:16:40.181Z,10.20
2018-09-27T01:17:40.156Z,14.80
2018-09-27T01:18:40.130Z,13.70
2018-09-27T01:19:40.105Z,15.30
2018-09-27T01:20:40.082Z,16.10
2018-09-27T01:21:40.051Z,14.30
2018-09-27T01:22:40.028Z,14.10
2018-09-27T01:23:40.005Z,9.30
2018-09-27T01:24:39.974Z,13.40
2018-09-27T01:25:39.950Z,16.50
2018-09-27T01:26:39.924Z,10.60
2018-09-27T01:27:39.900Z,18.00
2018-09-27T01:28:39.888Z,22.80
2018-09-27T01:29:39.848Z,11.60
2018-09-27T01:30:39.821Z,18.20
2018-09-27T01:31:39.797Z,14.50
2018-09-27T01:32:39.769Z,13.00
2018-09-27T01:33:39.744Z,13.10
2018-09-27T01:34:39.721Z,17.60
2018-09-27T01:35:39.997Z,13.30
2018-09-27T01:36:39.668Z,16.40
2018-09-27T01:37:39.641Z,15.90
2018-09-27T01:38:39.622Z,14.80
2018-09-27T01:39:39.591Z,12.20
2018-09-27T01:40:39.564Z,16.50
2018-09-27T01:41:39.542Z,17.40
2018-09-27T01:42:39.513Z,17.10
2018-09-27T01:43:39.487Z,16.80
2018-09-27T01:44:39.461Z,16.00
2018-09-27T01:45:39.436Z,11.30
2018-09-27T01:46:39.412Z,12.60
2018-09-27T01:47:39.387Z,12.70
2018-09-27T01:48:39.359Z,16.60
2018-09-27T01:49:39.333Z,21.20
2018-09-27T01:50:39.308Z,13.50
2018-09-27T01:51:39.282Z,14.60
2018-09-27T01:52:39.257Z,9.50
2018-09-27T01:53:39.230Z,14.10
2018-09-27T01:54:39.206Z,14.20
2018-09-27T01:55:39.180Z,16.20
2018-09-27T01:56:39.153Z,20.00
2018-09-27T01:57:39.126Z,13.70
2018-09-27T01:58:39.101Z,12.40
2018-09-27T01:59:39.076Z,13.50
2018-09-27T02:00:39.054Z,14.50
2018-09-27T02:01:39.025Z,13.60
2018-09-27T02:02:39.001Z,17.80
2018-09-27T02:03:38.973Z,19.80
2018-09-27T02:04:38.955Z,14.90
2018-09-27T02:05:40.023Z,12.60
2018-09-27T02:06:38.897Z,9.80
2018-09-27T02:07:38.871Z,16.80
2018-09-27T02:08:38.844Z,15.70
2018-09-27T02:09:38.819Z,18.00
2018-09-27T02:10:38.793Z,9.50
2018-09-27T02:11:38.768Z,14.60
2018-09-27T02:12:38.741Z,15.60
2018-09-27T02:13:38.715Z,15.00
2018-09-27T02:14:38.692Z,17.20
2018-09-27T02:15:38.665Z,12.30
2018-09-27T02:16:38.640Z,15.40
2018-09-27T02:17:38.613Z,15.30
2018-09-27T02:18:38.587Z,20.50
2018-09-27T02:19:38.561Z,14.00
2018-09-27T02:20:38.536Z,15.90
2018-09-27T02:21:38.512Z,12.90
2018-09-27T02:22:38.485Z,18.30
2018-09-27T02:23:38.459Z,16.40
2018-09-27T02:24:38.433Z,14.70
2018-09-27T02:25:38.407Z,17.60
2018-09-27T02:26:38.381Z,16.80
2018-09-27T02:27:38.356Z,14.60
2018-09-27T02:28:38.330Z,14.70
2018-09-27T02:29:38.305Z,17.90
2018-09-27T02:30:38.481Z,19.70
2018-09-27T02:31:38.255Z,15.40
2018-09-27T02:32:38.227Z,15.50
2018-09-27T02:33:38.202Z,18.20
2018-09-27T02:34:38.176Z,20.70
2018-09-27T02:35:38.151Z,14.60
2018-09-27T02:36:38.127Z,12.40
2018-09-27T02:37:38.100Z,18.50
2018-09-27T02:38:38.080Z,18.50
2018-09-27T02:39:38.048Z,14.70
2018-09-27T02:40:38.025Z,17.40
2018-09-27T02:41:37.996Z,16.60
2018-09-27T02:42:37.971Z,17.90
2018-09-27T02:43:37.945Z,20.30
2018-09-27T02:44:37.921Z,17.30
2018-09-27T02:45:37.894Z,18.60
2018-09-27T02:46:37.867Z,20.70
2018-09-27T02:47:37.843Z,19.90
2018-09-27T02:48:37.818Z,17.40
2018-09-27T02:49:37.789Z,20.10
2018-09-27T02:50:37.765Z,15.20
2018-09-27T02:51:37.739Z,14.40
2018-09-27T02:52:37.719Z,19.20
2018-09-27T02:53:37.690Z,13.50
2018-09-27T02:54:37.661Z,16.60
2018-09-27T02:55:37.653Z,17.00
2018-09-27T02:56:37.610Z,18.80
2018-09-27T02:57:37.587Z,15.50
2018-09-27T02:58:37.559Z,13.50
2018-09-27T02:59:37.534Z,21.80
2018-09-27T03:00:37.508Z,15.40
2018-09-27T03:01:37.482Z,14.80
2018-09-27T03:02:37.461Z,14.20
2018-09-27T03:03:37.434Z,18.90
2018-09-27T03:04:37.412Z,17.20
2018-09-27T03:05:37.379Z,18.70
2018-09-27T03:06:37.354Z,17.70
2018-09-27T03:07:37.331Z,18.30
2018-09-27T03:08:37.308Z,18.00
2018-09-27T03:09:37.276Z,20.30
2018-09-27T03:10:37.254Z,14.10
2018-09-27T03:11:37.229Z,22.80
2018-09-27T03:12:37.204Z,16.60
2018-09-27T03:13:37.173Z,22.00
2018-09-27T03:14:37.152Z,18.30
2018-09-27T03:15:37.122Z,19.30
2018-09-27T03:16:37.096Z,18.70
2018-09-27T03:17:37.071Z,19.60
2018-09-27T03:18:37.046Z,19.70
2018-09-27T03:19:37.021Z,17.50
2018-09-27T03:20:36.998Z,19.90
2018-09-27T03:21:36.969Z,21.40
2018-09-27T03:22:36.943Z,21.20
2018-09-27T03:23:36.917Z,16.90
2018-09-27T03:24:36.892Z,18.60
2018-09-27T03:25:36.867Z,13.20
2018-09-27T03:26:36.841Z,18.20
2018-09-27T03:27:36.816Z,18.30
2018-09-27T03:28:36.787Z,21.80
2018-09-27T03:29:36.775Z,16.60
2018-09-27T03:30:36.737Z,20.50
2018-09-27T03:31:36.716Z,17.20
2018-09-27T03:32:36.684Z,18.20
2018-09-27T03:33:36.660Z,20.60
2018-09-27T03:34:36.637Z,21.60
2018-09-27T03:35:36.610Z,21.00
2018-09-27T03:36:36.581Z,17.40
2018-09-27T03:37:36.556Z,22.00
2018-09-27T03:38:36.531Z,19.10
2018-09-27T03:39:36.512Z,13.80
2018-09-27T03:40:36.523Z,21.40
2018-09-27T03:41:36.455Z,19.00
2018-09-27T03:42:36.427Z,19.70
2018-09-27T03:43:36.403Z,20.60
2018-09-27T03:44:36.376Z,19.20
2018-09-27T03:45:36.353Z,23.90
2018-09-27T03:46:36.326Z,18.90
2018-09-27T03:47:36.299Z,17.50
2018-09-27T03:48:36.273Z,19.90
2018-09-27T03:49:36.246Z,18.80
2018-09-27T03:50:36.221Z,17.00
2018-09-27T03:51:36.195Z,19.60
2018-09-27T03:52:36.171Z,18.00
2018-09-27T03:53:36.149Z,18.30
2018-09-27T03:54:36.119Z,19.20
2018-09-27T03:55:36.094Z,20.40
2018-09-27T03:56:36.066Z,18.40
2018-09-27T03:57:36.039Z,19.60
2018-09-27T03:58:36.419Z,16.60
2018-09-27T03:59:36.195Z,20.20
2018-09-27T04:00:35.963Z,17.50
2018-09-27T04:01:35.938Z,25.40
2018-09-27T04:02:35.912Z,20.20
2018-09-27T04:03:35.888Z,19.10
2018-09-27T04:04:35.860Z,17.20
2018-09-27T04:05:36.038Z,23.00
2018-09-27T04:06:35.809Z,20.30
2018-09-27T04:07:35.788Z,16.80
2018-09-27T04:08:36.362Z,26.70
2018-09-27T04:09:35.730Z,21.70
2018-09-27T04:10:35.704Z,19.40
2018-09-27T04:11:35.678Z,22.50
2018-09-27T04:12:35.656Z,19.60
2018-09-27T04:13:35.627Z,21.90
2018-09-27T04:14:35.600Z,21.90
2018-09-27T04:15:35.573Z,19.50
2018-09-27T04:16:35.548Z,23.10
2018-09-27T04:17:35.523Z,21.80
2018-09-27T04:18:35.497Z,20.10
2018-09-27T04:19:35.471Z,21.80
2018-09-27T04:20:35.448Z,24.20
2018-09-27T04:21:35.418Z,22.00
2018-09-27T04:22:35.393Z,22.00
2018-09-27T04:23:35.366Z,21.20
2018-09-27T04:24:35.341Z,20.30
2018-09-27T04:25:35.314Z,22.50
2018-09-27T04:26:35.290Z,20.80
2018-09-27T04:27:35.263Z,21.90
2018-09-27T04:28:35.237Z,21.30
2018-09-27T04:29:35.213Z,15.50
2018-09-27T04:30:35.185Z,23.50
2018-09-27T04:31:35.160Z,24.20
2018-09-27T04:32:35.140Z,24.90
2018-09-27T04:33:35.110Z,17.40
2018-09-27T04:34:35.084Z,26.90
2018-09-27T04:35:35.060Z,24.30
2018-09-27T04:36:35.029Z,22.00
2018-09-27T04:37:35.003Z,23.00
2018-09-27T04:38:34.978Z,22.40
2018-09-27T04:39:34.953Z,21.70
2018-09-27T04:40:34.927Z,30.00
2018-09-27T04:41:34.899Z,17.00
2018-09-27T04:42:34.873Z,19.40
2018-09-27T04:43:34.851Z,18.80
2018-09-27T04:44:34.822Z,19.40
2018-09-27T04:45:34.795Z,18.70
2018-09-27T04:46:34.779Z,28.00
2018-09-27T04:47:34.744Z,25.20
2018-09-27T04:48:34.717Z,23.80
2018-09-27T04:49:34.691Z,19.50
2018-09-27T04:50:34.668Z,22.40
2018-09-27T04:51:34.652Z,22.20
2018-09-27T04:52:34.613Z,30.50
2018-09-27T04:53:34.588Z,26.80
2018-09-27T04:54:34.666Z,27.10
2018-09-27T04:55:34.536Z,33.30
2018-09-27T04:56:34.509Z,22.50
2018-09-27T04:57:34.486Z,23.90
2018-09-27T04:58:34.457Z,23.80
2018-09-27T04:59:34.432Z,22.00
2018-09-27T05:00:34.408Z,21.10
2018-09-27T05:01:34.382Z,25.60
2018-09-27T05:02:34.354Z,27.30
2018-09-27T05:03:34.478Z,26.80
2018-09-27T05:04:34.300Z,20.10
2018-09-27T05:05:34.275Z,26.60
2018-09-27T05:06:34.249Z,22.50
2018-09-27T05:07:34.227Z,29.30
2018-09-27T05:08:34.195Z,23.80
2018-09-27T05:09:34.241Z,27.90
2018-09-27T05:10:34.149Z,28.70
2018-09-27T05:11:34.119Z,22.20
2018-09-27T05:12:34.091Z,23.10
2018-09-27T05:13:34.066Z,22.90
2018-09-27T05:14:34.040Z,29.20
2018-09-27T05:15:34.036Z,25.70
2018-09-27T05:16:33.988Z,26.70
2018-09-27T05:17:33.962Z,24.20
2018-09-27T05:18:33.937Z,25.00
2018-09-27T05:19:33.908Z,30.50
2018-09-27T05:20:33.894Z,24.80
2018-09-27T05:21:33.905Z,31.40
2018-09-27T05:22:33.830Z,21.10
2018-09-27T05:23:33.805Z,30.80
2018-09-27T05:24:33.777Z,31.60
2018-09-27T05:25:33.752Z,26.00
2018-09-27T05:26:33.726Z,25.30
2018-09-27T05:27:33.716Z,20.70
2018-09-27T05:28:33.674Z,33.20
2018-09-27T05:29:33.647Z,27.60
2018-09-27T05:30:33.624Z,26.50
2018-09-27T05:31:33.596Z,32.20
2018-09-27T05:32:33.569Z,32.40
2018-09-27T05:33:33.607Z,26.80
2018-09-27T05:34:33.517Z,30.60
2018-09-27T05:35:33.490Z,30.70
2018-09-27T05:36:33.464Z,27.10
2018-09-27T05:37:33.437Z,25.30
2018-09-27T05:38:33.412Z,32.10
2018-09-27T05:39:33.447Z,26.70
2018-09-27T05:40:33.360Z,30.20
2018-09-27T05:41:33.334Z,26.80
2018-09-27T05:42:33.308Z,27.60
2018-09-27T05:43:33.281Z,27.20
2018-09-27T05:44:33.257Z,28.60
2018-09-27T05:45:33.257Z,26.70
2018-09-27T05:46:33.209Z,26.20
2018-09-27T05:47:33.177Z,27.30
2018-09-27T05:48:33.150Z,29.70
2018-09-27T05:49:33.133Z,24.80
2018-09-27T05:50:33.099Z,32.10
2018-09-27T05:51:33.115Z,28.50
2018-09-27T05:52:33.046Z,26.30
2018-09-27T05:53:33.023Z,26.40
2018-09-27T05:54:32.994Z,30.60
2018-09-27T05:55:32.969Z,30.90
2018-09-27T05:56:32.941Z,28.90
2018-09-27T05:57:33.006Z,28.80
2018-09-27T05:58:32.890Z,25.40
2018-09-27T05:59:32.865Z,27.40
2018-09-27T06:00:32.839Z,29.00
2018-09-27T06:01:32.816Z,31.00
2018-09-27T06:02:32.789Z,28.20
2018-09-27T06:03:32.788Z,27.60
2018-09-27T06:04:32.735Z,27.10
2018-09-27T06:05:32.715Z,26.20
2018-09-27T06:06:32.682Z,24.30
2018-09-27T06:07:32.657Z,26.40
2018-09-27T06:08:32.629Z,26.70
2018-09-27T06:09:32.641Z,26.40
2018-09-27T06:10:32.578Z,31.40
2018-09-27T06:11:32.621Z,26.00
2018-09-27T06:12:32.525Z,30.00
2018-09-27T06:13:32.499Z,30.50
2018-09-27T06:14:32.476Z,32.20
2018-09-27T06:15:32.510Z,25.60
2018-09-27T06:16:32.421Z,31.60
2018-09-27T06:17:32.394Z,26.30
2018-09-27T06:18:32.370Z,28.60
2018-09-27T06:19:33.192Z,29.20
2018-09-27T06:20:32.319Z,25.40
2018-09-27T06:21:32.344Z,28.60
2018-09-27T06:22:32.266Z,26.30
2018-09-27T06:23:32.258Z,27.00
2018-09-27T06:24:32.217Z,31.50
2018-09-27T06:25:32.189Z,33.50
2018-09-27T06:26:32.163Z,25.70
2018-09-27T06:27:32.198Z,33.60
2018-09-27T06:28:32.109Z,28.70
2018-09-27T06:29:32.085Z,30.70
2018-09-27T06:30:32.060Z,33.90
2018-09-27T06:31:32.035Z,35.10
2018-09-27T06:32:32.009Z,30.70
2018-09-27T06:33:32.013Z,41.70
2018-09-27T06:34:32.159Z,37.90
2018-09-27T06:36:56.434Z,30.90
2018-09-27T06:37:59.839Z,31.30
2018-09-27T06:38:56.383Z,34.20
2018-09-27T06:39:56.358Z,35.70
2018-09-27T06:40:56.332Z,33.00
2018-09-27T06:41:56.311Z,30.90
2018-09-27T06:42:56.079Z,36.90
2018-09-27T06:43:56.052Z,37.60
2018-09-27T06:44:56.033Z,39.20
2018-09-27T06:45:56.003Z,38.60
2018-09-27T06:46:56.178Z,32.70
2018-09-27T06:47:55.950Z,42.70
2018-09-27T06:48:55.929Z,45.20
2018-09-27T06:49:55.898Z,53.10
2018-09-27T06:50:55.873Z,54.50
2018-09-27T06:51:55.853Z,39.90
2018-09-27T06:52:55.822Z,40.60
2018-09-27T06:53:55.798Z,35.20
2018-09-27T06:54:55.805Z,36.60
2018-09-27T06:55:56.117Z,35.90
2018-09-27T06:56:55.940Z,30.20
2018-09-27T06:57:55.694Z,36.60
2018-09-27T06:58:55.670Z,38.40
2018-09-27T06:59:55.643Z,36.50
2018-09-27T07:00:55.656Z,36.70
2018-09-27T07:01:55.598Z,33.20
2018-09-27T07:02:55.567Z,34.10
2018-09-27T07:03:55.542Z,37.80
2018-09-27T07:04:55.636Z,37.10
2018-09-27T07:05:55.491Z,36.40
2018-09-27T07:06:55.466Z,46.10
2018-09-27T07:07:55.444Z,44.00
2018-09-27T07:08:55.436Z,46.50
2018-09-27T07:09:55.391Z,40.20
2018-09-27T07:10:55.365Z,39.50
2018-09-27T07:11:55.381Z,42.70
2018-09-27T07:12:55.365Z,41.30
2018-09-27T07:13:55.290Z,43.70
2018-09-27T07:14:55.268Z,34.60
2018-09-27T07:15:55.240Z,37.60
2018-09-27T07:16:55.223Z,43.70
2018-09-27T07:17:55.191Z,37.90
2018-09-27T07:18:55.166Z,36.60
2018-09-27T07:19:55.144Z,43.90
2018-09-27T07:20:55.127Z,39.40
2018-09-27T07:21:55.091Z,44.00
2018-09-27T07:22:55.066Z,34.80
2018-09-27T07:23:55.043Z,41.20
2018-09-27T07:24:55.017Z,42.80
2018-09-27T07:25:54.992Z,32.70
2018-09-27T07:26:55.031Z,37.10
2018-09-27T07:27:54.946Z,38.80
2018-09-27T07:28:54.921Z,37.80
2018-09-27T07:29:54.891Z,34.00
2018-09-27T07:30:54.875Z,31.50
2018-09-27T07:31:54.847Z,34.70
2018-09-27T07:32:54.827Z,40.60
2018-09-27T07:33:54.793Z,38.80
2018-09-27T07:34:54.767Z,37.10
2018-09-27T07:35:54.744Z,27.50
2018-09-27T07:36:54.720Z,30.50
2018-09-27T07:37:54.695Z,34.30
2018-09-27T07:38:54.679Z,30.70
2018-09-27T07:39:54.648Z,19.00
2018-09-27T07:40:54.624Z,19.40
2018-09-27T07:41:54.611Z,22.30
2018-09-27T07:42:54.582Z,27.60
2018-09-27T07:43:54.552Z,20.20
2018-09-27T07:44:54.531Z,30.10
2018-09-27T07:45:54.503Z,34.70
2018-09-27T07:46:54.479Z,30.40
2018-09-27T07:47:54.456Z,42.40
2018-09-27T07:48:54.431Z,42.60
2018-09-27T07:49:54.406Z,31.70
2018-09-27T07:50:54.383Z,37.20
2018-09-27T07:51:54.360Z,33.30
2018-09-27T07:52:54.339Z,31.20
2018-09-27T07:53:54.560Z,34.80
2018-09-27T07:54:54.319Z,37.20
2018-09-27T07:55:54.261Z,32.20
2018-09-27T07:56:54.238Z,40.50
2018-09-27T07:57:54.213Z,41.20
2018-09-27T07:58:54.204Z,32.40
2018-09-27T07:59:54.164Z,38.80
2018-09-27T08:00:54.142Z,31.70
2018-09-27T08:01:54.120Z,35.80
2018-09-27T08:02:54.236Z,34.50
2018-09-27T08:03:54.075Z,32.50
2018-09-27T08:04:54.051Z,37.20
2018-09-27T08:05:54.028Z,36.50
2018-09-27T08:06:54.003Z,33.20
2018-09-27T08:07:53.979Z,38.60
2018-09-27T08:08:53.963Z,42.10
2018-09-27T08:09:53.935Z,30.30
2018-09-27T08:10:53.947Z,41.40
2018-09-27T08:11:53.933Z,37.30
2018-09-27T08:12:53.872Z,36.50
2018-09-27T08:13:54.044Z,33.30
2018-09-27T08:14:53.822Z,39.70
2018-09-27T08:15:53.798Z,28.70
2018-09-27T08:16:53.846Z,32.60
2018-09-27T08:17:53.752Z,29.10
2018-09-27T08:18:53.730Z,36.70
2018-09-27T08:19:53.708Z,34.00
2018-09-27T08:20:53.713Z,32.60
2018-09-27T08:21:53.662Z,37.70
2018-09-27T08:22:53.642Z,35.50
2018-09-27T08:23:53.646Z,33.70
2018-09-27T08:24:53.599Z,34.40
2018-09-27T08:25:53.577Z,33.30
2018-09-27T08:26:53.559Z,29.40
2018-09-27T08:27:53.533Z,33.20
2018-09-27T08:28:53.714Z,31.80
2018-09-27T08:29:53.499Z,34.20
2018-09-27T08:30:53.585Z,18.70
2018-09-27T08:31:53.450Z,27.30
2018-09-27T08:32:53.425Z,29.30
2018-09-27T08:33:53.403Z,33.10
2018-09-27T08:34:53.382Z,31.70
2018-09-27T08:35:53.362Z,33.30
2018-09-27T08:36:53.338Z,33.70
2018-09-27T08:37:53.317Z,31.50
2018-09-27T08:38:53.301Z,41.80
2018-09-27T08:39:53.273Z,43.20
2018-09-27T08:40:53.252Z,33.70
2018-09-27T08:41:53.229Z,36.60
2018-09-27T08:42:53.208Z,44.60
2018-09-27T08:43:53.188Z,31.50
2018-09-27T08:44:53.399Z,36.30
2018-09-27T08:45:53.181Z,32.60
2018-09-27T08:46:53.121Z,29.20
2018-09-27T08:47:53.100Z,33.60
2018-09-27T08:48:53.078Z,33.10
2018-09-27T08:49:53.056Z,31.50
2018-09-27T08:50:53.036Z,28.10
2018-09-27T08:51:53.016Z,29.50
2018-09-27T08:52:52.994Z,31.90
2018-09-27T08:53:52.971Z,29.60
2018-09-27T08:54:52.960Z,33.30
2018-09-27T08:55:52.979Z,28.50
2018-09-27T08:56:52.908Z,31.40
2018-09-27T08:57:52.886Z,28.10
2018-09-27T08:58:52.866Z,28.50
2018-09-27T08:59:52.851Z,35.10
2018-09-27T09:00:52.824Z,27.40
2018-09-27T09:01:52.806Z,31.40
2018-09-27T09:02:52.783Z,23.60
2018-09-27T09:03:52.766Z,29.40
2018-09-27T09:04:52.766Z,29.60
2018-09-27T09:05:52.725Z,29.10
2018-09-27T09:06:52.698Z,30.90
2018-09-27T09:07:52.677Z,23.80
2018-09-27T09:08:52.657Z,26.00
2018-09-27T09:09:52.640Z,22.30
2018-09-27T09:10:52.624Z,22.30
2018-09-27T09:11:52.807Z,25.90
2018-09-27T09:12:52.777Z,21.80
2018-09-27T09:13:52.554Z,19.30
2018-09-27T09:14:52.534Z,24.40
2018-09-27T09:15:52.519Z,26.70
2018-09-27T09:16:53.106Z,24.70
2018-09-27T09:17:52.677Z,24.10
2018-09-27T09:18:52.454Z,18.40
2018-09-27T09:19:52.637Z,24.30
2018-09-27T09:20:52.617Z,22.00
2018-09-27T09:21:52.397Z,19.40
2018-09-27T09:22:52.375Z,20.10
2018-09-27T09:23:52.360Z,23.60
2018-09-27T09:24:52.352Z,17.20
2018-09-27T09:25:52.320Z,25.50
2018-09-27T09:26:52.295Z,27.00
2018-09-27T09:27:52.276Z,22.20
2018-09-27T09:28:52.256Z,21.70
2018-09-27T09:29:52.274Z,21.70
2018-09-27T09:30:52.218Z,23.90
2018-09-27T09:31:52.195Z,20.60
2018-09-27T09:32:52.178Z,23.70
2018-09-27T09:33:52.167Z,24.30
2018-09-27T09:34:52.441Z,16.40
2018-09-27T09:35:52.126Z,19.30
2018-09-27T09:36:52.305Z,23.70
2018-09-27T09:37:52.281Z,20.80
2018-09-27T09:38:52.056Z,18.40
2018-09-27T09:39:52.888Z,17.30
2018-09-27T09:40:52.021Z,21.60
2018-09-27T09:41:51.996Z,18.40
2018-09-27T09:42:51.978Z,16.00
2018-09-27T09:43:52.162Z,17.10
2018-09-27T09:44:51.941Z,17.60
2018-09-27T09:45:51.921Z,20.90
2018-09-27T09:46:51.901Z,15.60
2018-09-27T09:47:52.083Z,15.10
2018-09-27T09:48:52.069Z,15.10
2018-09-27T09:49:51.892Z,15.10
2018-09-27T09:50:51.823Z,13.20
2018-09-27T09:51:51.807Z,16.00
2018-09-27T09:52:51.785Z,15.00
2018-09-27T09:53:51.765Z,14.40
2018-09-27T09:54:51.744Z,14.30
2018-09-27T09:55:51.929Z,13.90
2018-09-27T09:56:51.909Z,14.10
2018-09-27T09:57:51.687Z,14.20
2018-09-27T09:58:51.870Z,16.50
2018-09-27T09:59:51.649Z,17.80
2018-09-27T10:00:51.833Z,17.30
2018-09-27T10:01:51.611Z,16.00
2018-09-27T10:02:51.590Z,16.80
2018-09-27T10:03:51.572Z,16.90
2018-09-27T10:04:51.555Z,15.80
2018-09-27T10:05:51.533Z,18.50
2018-09-27T10:06:51.513Z,19.10
2018-09-27T10:07:51.700Z,22.30
2018-09-27T10:08:51.524Z,19.60
2018-09-27T10:09:51.456Z,15.70
2018-09-27T10:10:51.439Z,17.70
2018-09-27T10:11:51.419Z,14.50
2018-09-27T10:12:51.400Z,13.60
2018-09-27T10:13:51.388Z,17.30
2018-09-27T10:14:51.381Z,12.90
2018-09-27T10:15:51.344Z,9.30
2018-09-27T10:16:51.324Z,11.50
2018-09-27T10:17:51.304Z,14.40
2018-09-27T10:18:51.288Z,14.50
2018-09-27T10:19:51.266Z,14.20
2018-09-27T10:20:51.248Z,17.40
2018-09-27T10:21:51.416Z,16.30
2018-09-27T10:22:51.209Z,12.50
2018-09-27T10:23:51.190Z,13.50
2018-09-27T10:24:51.172Z,18.80
2018-09-27T10:25:51.167Z,14.70
2018-09-27T10:26:51.139Z,18.20
2018-09-27T10:27:51.114Z,16.60
2018-09-27T10:28:51.094Z,18.70
2018-09-27T10:29:51.077Z,21.70
2018-09-27T10:30:51.056Z,11.90
2018-09-27T10:31:51.037Z,14.40
2018-09-27T10:32:51.018Z,12.50
2018-09-27T10:33:51.006Z,18.00
2018-09-27T10:34:50.977Z,15.50
2018-09-27T10:35:51.160Z,29.30
2018-09-27T10:36:51.140Z,15.30
2018-09-27T10:37:51.118Z,15.70
2018-09-27T10:38:51.102Z,16.50
2018-09-27T10:39:51.079Z,22.80
2018-09-27T10:40:51.063Z,14.90
2018-09-27T10:41:50.838Z,15.60
2018-09-27T10:42:50.814Z,16.70
2018-09-27T10:43:50.998Z,14.40
2018-09-27T10:44:50.832Z,16.60
2018-09-27T10:45:50.752Z,19.00
2018-09-27T10:46:50.730Z,17.40
2018-09-27T10:47:50.710Z,13.50
2018-09-27T10:48:50.688Z,15.50
2018-09-27T10:49:50.666Z,23.10
2018-09-27T10:50:50.645Z,15.90
2018-09-27T10:51:50.625Z,17.40
2018-09-27T10:52:50.645Z,21.50
2018-09-27T10:53:50.581Z,14.40
2018-09-27T10:54:50.561Z,17.50
2018-09-27T10:55:50.539Z,17.40
2018-09-27T10:56:50.519Z,18.10
2018-09-27T10:57:50.496Z,16.40
2018-09-27T10:58:50.477Z,15.00
2018-09-27T10:59:50.457Z,13.00
2018-09-27T11:00:50.454Z,22.10
2018-09-27T11:01:50.415Z,17.00
2018-09-27T11:02:50.391Z,18.20
2018-09-27T11:03:50.371Z,17.50
2018-09-27T11:04:50.355Z,20.40
2018-09-27T11:05:50.328Z,18.50
2018-09-27T11:06:50.309Z,19.40
2018-09-27T11:07:50.305Z,22.20
2018-09-27T11:08:50.266Z,19.60
2018-09-27T11:09:50.246Z,22.10
2018-09-27T11:10:50.236Z,14.10
2018-09-27T11:11:50.205Z,16.20
2018-09-27T11:12:50.186Z,20.50
2018-09-27T11:13:50.164Z,22.10
2018-09-27T11:14:50.146Z,15.30
2018-09-27T11:15:50.125Z,13.80
2018-09-27T11:16:50.112Z,16.20
2018-09-27T11:17:50.084Z,17.80
2018-09-27T11:18:50.066Z,18.80
2018-09-27T11:19:50.047Z,11.20
2018-09-27T11:20:50.027Z,14.70
2018-09-27T11:21:50.062Z,18.60
2018-09-27T11:22:49.996Z,22.50
2018-09-27T11:23:49.973Z,22.00
2018-09-27T11:24:50.150Z,24.40
2018-09-27T11:25:49.934Z,22.50
2018-09-27T11:26:49.908Z,22.80
2018-09-27T11:27:49.897Z,28.10
2018-09-27T11:28:49.900Z,17.90
2018-09-27T11:29:49.868Z,16.00
2018-09-27T11:30:49.834Z,15.20
2018-09-27T11:31:49.811Z,16.00
2018-09-27T11:32:49.796Z,22.80
2018-09-27T11:33:49.771Z,20.00
2018-09-27T11:34:49.752Z,22.20
2018-09-27T11:35:49.738Z,24.70
2018-09-27T11:36:49.714Z,21.40
2018-09-27T11:37:49.693Z,21.10
2018-09-27T11:38:49.674Z,14.70
2018-09-27T11:39:49.654Z,17.90
2018-09-27T11:40:49.633Z,20.60
2018-09-27T11:41:49.615Z,24.40
2018-09-27T11:42:49.639Z,19.40
2018-09-27T11:43:49.583Z,23.00
2018-09-27T11:44:49.554Z,24.90
2018-09-27T11:45:49.543Z,25.30
2018-09-27T11:46:49.515Z,17.70
2018-09-27T11:47:49.498Z,13.90
2018-09-27T11:48:49.516Z,17.60
2018-09-27T11:49:49.559Z,21.80
2018-09-27T11:50:49.433Z,13.90
2018-09-27T11:51:49.625Z,22.30
2018-09-27T11:52:49.596Z,19.00
2018-09-27T11:53:49.576Z,23.10
2018-09-27T11:54:49.364Z,21.40
2018-09-27T11:55:49.360Z,25.40
2018-09-27T11:56:49.313Z,27.60
2018-09-27T11:57:49.294Z,27.10
2018-09-27T11:58:49.273Z,19.30
2018-09-27T11:59:49.267Z,22.90
2018-09-27T12:00:49.234Z,22.50
2018-09-27T12:01:49.229Z,18.30
2018-09-27T12:02:49.194Z,25.20
2018-09-27T12:03:49.212Z,20.30
2018-09-27T12:04:49.357Z,18.40
2018-09-27T12:05:49.137Z,17.20
2018-09-27T12:06:49.117Z,24.70
2018-09-27T12:07:49.097Z,17.80
2018-09-27T12:08:49.276Z,21.80
2018-09-27T12:09:49.056Z,21.90
2018-09-27T12:10:49.033Z,22.50
2018-09-27T12:11:49.069Z,22.90
2018-09-27T12:12:49.195Z,25.10
2018-09-27T12:13:48.975Z,21.60
2018-09-27T12:14:48.950Z,15.50
2018-09-27T12:15:48.931Z,24.10
2018-09-27T12:16:49.026Z,17.60
2018-09-27T12:17:48.899Z,15.90
2018-09-27T12:18:48.869Z,14.60
2018-09-27T12:19:48.857Z,16.20
2018-09-27T12:20:48.835Z,15.70
2018-09-27T12:21:48.808Z,22.30
2018-09-27T12:22:48.798Z,26.50
2018-09-27T12:23:48.767Z,27.90
2018-09-27T12:24:48.746Z,25.60
2018-09-27T12:25:48.738Z,17.00
2018-09-27T12:26:48.706Z,27.20
2018-09-27T12:27:48.688Z,16.20
2018-09-27T12:28:48.665Z,17.50
2018-09-27T12:29:48.644Z,22.80
2018-09-27T12:30:52.263Z,28.60
2018-09-27T12:31:48.604Z,25.10
2018-09-27T12:32:48.585Z,26.50
2018-09-27T12:33:48.568Z,16.50
2018-09-27T12:34:48.546Z,19.30
2018-09-27T12:35:48.525Z,25.60
2018-09-27T12:36:48.510Z,21.70
2018-09-27T12:37:48.486Z,18.70
2018-09-27T12:38:48.493Z,24.30
2018-09-27T12:39:48.460Z,18.50
2018-09-27T12:40:48.429Z,25.20
2018-09-27T12:41:48.751Z,20.70
2018-09-27T12:42:48.392Z,26.20
2018-09-27T12:43:48.368Z,23.00
2018-09-27T12:44:48.348Z,24.10
2018-09-27T12:45:48.609Z,23.00
2018-09-27T12:46:48.401Z,17.30
2018-09-27T12:47:48.292Z,18.60
2018-09-27T12:48:48.339Z,26.40
2018-09-27T12:49:48.462Z,22.90
2018-09-27T12:50:48.442Z,19.30
2018-09-27T12:51:48.345Z,20.50
2018-09-27T12:52:48.545Z,17.60
2018-09-27T12:53:48.477Z,18.70
2018-09-27T12:54:48.161Z,23.20